createdAt,value
2018-09-06T00:01:15.252Z,16.10
2018-09-06T00:03:43.779Z,16.00
2018-09-06T00:06:12.301Z,15.90
2018-09-06T00:08:40.771Z,15.90
2018-09-06T00:11:09.276Z,15.90
2018-09-06T00:13:37.770Z,15.90
2018-09-06T00:16:06.639Z,15.90
2018-09-06T00:18:35.522Z,15.90
2018-09-06T00:21:04.236Z,15.90
2018-09-06T00:23:32.763Z,15.90
2018-09-06T00:26:01.281Z,15.90
2018-09-06T00:28:29.731Z,15.90
2018-09-06T00:30:58.224Z,16.00
2018-09-06T00:33:26.696Z,16.00
2018-09-06T00:35:55.535Z,16.00
2018-09-06T00:38:24.019Z,16.00
2018-09-06T00:40:52.552Z,16.00
2018-09-06T00:43:21.015Z,16.00
2018-09-06T00:45:49.568Z,16.00
2018-09-06T00:48:18.067Z,16.00
2018-09-06T00:50:46.643Z,16.10
2018-09-06T00:53:15.151Z,16.10
2018-09-06T00:55:43.667Z,16.20
2018-09-06T00:58:12.139Z,16.20
2018-09-06T01:00:40.982Z,16.30
2018-09-06T01:03:09.476Z,16.30
2018-09-06T01:05:38.014Z,16.30
2018-09-06T01:08:06.487Z,16.30
2018-09-06T01:10:34.971Z,16.20
2018-09-06T01:13:03.460Z,16.20
2018-09-06T01:15:31.919Z,16.10
2018-09-06T01:18:00.442Z,16.10
2018-09-06T01:20:28.934Z,15.90
2018-09-06T01:22:57.451Z,15.90
2018-09-06T01:25:29.131Z,15.80
2018-09-06T01:27:57.619Z,15.70
2018-09-06T01:30:26.078Z,15.70
2018-09-06T01:32:54.591Z,15.60
2018-09-06T01:35:23.058Z,15.60
2018-09-06T01:37:51.587Z,15.60
2018-09-06T01:40:20.124Z,15.60
2018-09-06T01:42:48.603Z,15.50
2018-09-06T01:45:17.063Z,15.50
2018-09-06T01:47:45.527Z,15.40
2018-09-06T01:50:14.023Z,15.30
2018-09-06T01:52:42.541Z,15.20
2018-09-06T01:55:11.058Z,15.20
2018-09-06T01:57:39.554Z,15.10
2018-09-06T02:00:08.039Z,15.10
2018-09-06T02:02:36.535Z,15.00
2018-09-06T02:05:05.118Z,15.00
2018-09-06T02:07:33.663Z,15.10
2018-09-06T02:10:02.167Z,15.10
2018-09-06T02:12:30.649Z,15.10
2018-09-06T02:14:59.122Z,15.20
2018-09-06T02:17:27.626Z,15.30
2018-09-06T02:19:56.087Z,15.30
2018-09-06T02:22:24.577Z,15.30
2018-09-06T02:24:53.150Z,15.30
2018-09-06T02:27:21.635Z,15.20
2018-09-06T02:29:50.106Z,15.20
2018-09-06T02:32:18.610Z,15.20
2018-09-06T02:34:47.079Z,15.10
2018-09-06T02:37:15.570Z,15.20
2018-09-06T02:39:44.343Z,15.10
2018-09-06T02:42:12.818Z,15.10
2018-09-06T02:44:41.298Z,15.10
2018-09-06T02:47:09.851Z,15.10
2018-09-06T02:49:43.605Z,15.00
2018-09-06T02:52:12.278Z,15.00
2018-09-06T02:54:40.708Z,15.00
2018-09-06T02:57:09.563Z,15.00
2018-09-06T02:59:38.016Z,15.00
2018-09-06T03:02:06.634Z,15.10
2018-09-06T03:04:35.129Z,15.10
2018-09-06T03:07:03.610Z,15.10
2018-09-06T03:09:32.118Z,15.10
2018-09-06T03:12:02.774Z,15.00
2018-09-06T03:14:31.298Z,14.90
2018-09-06T03:17:00.199Z,15.00
2018-09-06T03:19:28.762Z,15.00
2018-09-06T03:21:57.252Z,15.00
2018-09-06T03:24:25.789Z,15.00
2018-09-06T03:26:54.261Z,15.00
2018-09-06T03:29:22.751Z,15.00
2018-09-06T03:31:51.201Z,15.00
2018-09-06T03:34:19.731Z,15.00
2018-09-06T03:36:48.230Z,15.00
2018-09-06T03:39:16.718Z,15.00
2018-09-06T03:41:45.186Z,15.00
2018-09-06T03:44:13.670Z,15.00
2018-09-06T03:46:42.224Z,15.00
2018-09-06T03:49:10.870Z,14.90
2018-09-06T03:51:39.351Z,14.90
2018-09-06T03:54:07.844Z,14.90
2018-09-06T03:56:36.327Z,14.80
2018-09-06T03:59:05.183Z,14.80
2018-09-06T04:01:33.662Z,14.80
2018-09-06T04:04:02.161Z,14.80
2018-09-06T04:06:30.631Z,14.80
2018-09-06T04:08:59.095Z,14.80
2018-09-06T04:11:27.572Z,14.80
2018-09-06T04:13:56.102Z,14.80
2018-09-06T04:16:24.609Z,14.70
2018-09-06T04:18:53.083Z,14.80
2018-09-06T04:21:21.588Z,14.70
2018-09-06T04:23:50.127Z,14.70
2018-09-06T04:26:18.594Z,14.70
2018-09-06T04:28:47.110Z,14.80
2018-09-06T04:31:15.558Z,14.70
2018-09-06T04:33:44.119Z,14.70
2018-09-06T04:36:12.654Z,14.70
2018-09-06T04:38:41.670Z,14.60
2018-09-06T04:41:10.146Z,14.60
2018-09-06T04:43:38.710Z,14.50
2018-09-06T04:46:07.585Z,14.50
2018-09-06T04:48:36.097Z,14.60
2018-09-06T04:51:04.571Z,14.60
2018-09-06T04:53:33.043Z,14.60
2018-09-06T04:56:01.594Z,14.60
2018-09-06T04:58:30.157Z,14.60
2018-09-06T05:00:58.960Z,14.60
2018-09-06T05:03:27.470Z,14.60
2018-09-06T05:05:56.083Z,14.60
2018-09-06T05:08:24.550Z,14.70
2018-09-06T05:10:53.023Z,14.70
2018-09-06T05:13:21.542Z,14.80
2018-09-06T05:15:50.063Z,14.80
2018-09-06T05:18:18.603Z,14.90
2018-09-06T05:20:47.174Z,15.00
2018-09-06T05:23:15.644Z,14.90
2018-09-06T05:25:44.312Z,15.00
2018-09-06T05:28:12.766Z,15.10
2018-09-06T05:30:41.312Z,15.20
2018-09-06T05:33:09.934Z,15.30
2018-09-06T05:35:38.412Z,15.40
2018-09-06T05:38:06.870Z,15.50
2018-09-06T05:40:35.442Z,15.70
2018-09-06T05:43:04.006Z,15.80
2018-09-06T05:45:32.510Z,15.90
2018-09-06T05:48:01.115Z,16.00
2018-09-06T05:50:31.179Z,16.10
2018-09-06T05:53:01.050Z,16.20
2018-09-06T05:55:29.550Z,16.20
2018-09-06T05:57:58.074Z,16.20
2018-09-06T06:00:31.852Z,16.30
2018-09-06T06:03:02.194Z,16.30
2018-09-06T06:05:30.699Z,16.20
2018-09-06T06:08:10.229Z,16.30
2018-09-06T06:10:39.549Z,16.20
2018-09-06T06:13:08.050Z,16.30
2018-09-06T06:15:36.658Z,16.30
2018-09-06T06:18:05.465Z,16.40
2018-09-06T06:20:34.317Z,16.30
2018-09-06T06:23:02.777Z,16.40
2018-09-06T06:32:31.823Z,16.40
2018-09-06T06:35:00.312Z,16.50
2018-09-06T06:37:28.767Z,16.60
2018-09-06T06:39:57.278Z,16.70
2018-09-06T06:42:26.251Z,16.90
2018-09-06T06:44:54.869Z,17.10
2018-09-06T06:47:23.344Z,17.20
2018-09-06T06:49:51.823Z,17.40
2018-09-06T06:52:21.956Z,17.60
2018-09-06T06:54:50.626Z,17.80
2018-09-06T06:57:19.134Z,17.90
2018-09-06T06:59:47.609Z,18.30
2018-09-06T07:02:16.085Z,18.40
2018-09-06T07:04:44.589Z,18.40
2018-09-06T07:07:13.337Z,18.40
2018-09-06T07:09:41.979Z,18.40
2018-09-06T07:12:10.514Z,18.30
2018-09-06T07:14:38.963Z,18.50
2018-09-06T07:17:07.451Z,18.60
2018-09-06T07:19:35.920Z,18.70
2018-09-06T07:22:04.479Z,19.00
2018-09-06T07:24:32.991Z,19.20
2018-09-06T07:27:02.354Z,19.40
2018-09-06T07:29:30.827Z,19.70
2018-09-06T07:31:59.342Z,19.90
2018-09-06T07:34:28.079Z,20.10
2018-09-06T07:36:56.619Z,20.30
2018-09-06T07:39:25.089Z,20.20
2018-09-06T07:41:53.579Z,20.30
2018-09-06T07:44:22.032Z,20.40
2018-09-06T07:46:50.603Z,20.50
2018-09-06T07:49:19.286Z,20.60
2018-09-06T07:51:47.810Z,20.80
2018-09-06T07:54:16.460Z,20.90
2018-09-06T07:56:44.955Z,20.80
2018-09-06T07:59:13.438Z,20.80
2018-09-06T08:01:42.014Z,20.70
2018-09-06T08:04:10.665Z,20.70
2018-09-06T08:06:39.167Z,20.70
2018-09-06T08:09:10.948Z,20.60
2018-09-06T08:11:40.050Z,20.60
2018-09-06T08:14:08.560Z,20.60
2018-09-06T08:16:37.507Z,20.60
2018-09-06T08:19:06.054Z,20.60
2018-09-06T08:21:34.546Z,20.60
2018-09-06T08:24:03.070Z,20.60
2018-09-06T08:26:31.554Z,20.60
2018-09-06T08:29:00.034Z,20.50
2018-09-06T08:31:28.601Z,20.50
2018-09-06T08:33:57.211Z,20.40
2018-09-06T08:36:25.748Z,20.30
2018-09-06T08:38:54.262Z,20.30
2018-09-06T08:41:22.774Z,20.10
2018-09-06T08:43:51.480Z,20.00
2018-09-06T08:46:20.001Z,20.00
2018-09-06T08:48:48.498Z,19.90
2018-09-06T08:51:17.016Z,19.90
2018-09-06T08:53:45.586Z,19.70
2018-09-06T08:56:15.984Z,19.70
2018-09-06T08:58:44.442Z,19.70
2018-09-06T09:01:18.164Z,19.70
2018-09-06T09:03:46.633Z,19.70
2018-09-06T09:06:15.751Z,19.60
2018-09-06T09:08:44.245Z,19.60
2018-09-06T09:11:12.733Z,19.70
2018-09-06T09:13:41.225Z,19.70
2018-09-06T09:16:10.146Z,19.70
2018-09-06T09:18:44.648Z,19.70
2018-09-06T09:21:13.481Z,19.70
2018-09-06T09:23:42.024Z,19.70
2018-09-06T09:26:10.519Z,19.70
2018-09-06T09:28:40.231Z,19.70
2018-09-06T09:31:08.682Z,19.70
2018-09-06T09:33:37.208Z,19.70
2018-09-06T09:36:06.122Z,19.70
2018-09-06T09:38:34.771Z,19.70
2018-09-06T09:41:03.335Z,19.70
2018-09-06T09:43:31.814Z,19.70
2018-09-06T09:48:28.359Z,19.80
2018-09-06T09:50:56.883Z,19.80
2018-09-06T09:53:25.376Z,19.80
2018-09-06T09:55:53.810Z,19.80
2018-09-06T09:58:22.260Z,19.80
2018-09-06T10:00:50.743Z,19.80
2018-09-06T10:03:24.366Z,19.70
2018-09-06T10:05:59.843Z,19.70
2018-09-06T10:08:35.881Z,19.70
2018-09-06T10:11:04.348Z,19.70
2018-09-06T10:13:32.802Z,19.70
2018-09-06T10:16:01.312Z,19.70
2018-09-06T10:18:30.998Z,19.70
2018-09-06T10:20:59.948Z,19.60
2018-09-06T10:23:28.768Z,19.60
2018-09-06T10:25:57.554Z,19.60
2018-09-06T10:28:26.383Z,19.50
2018-09-06T10:30:54.813Z,19.50
2018-09-06T10:33:23.326Z,19.50
2018-09-06T10:35:51.764Z,19.50
2018-09-06T10:38:20.235Z,19.50
2018-09-06T10:40:50.700Z,19.50
2018-09-06T10:43:19.202Z,19.50
2018-09-06T10:45:47.801Z,19.50
2018-09-06T10:48:16.246Z,19.50
2018-09-06T10:50:44.703Z,19.60
2018-09-06T10:53:13.531Z,19.50
2018-09-06T10:55:41.974Z,19.50
2018-09-06T10:58:10.407Z,19.40
2018-09-06T11:00:38.843Z,19.30
2018-09-06T11:03:07.570Z,19.20
2018-09-06T11:05:36.072Z,19.10
2018-09-06T11:08:04.592Z,19.10
2018-09-06T11:10:33.166Z,19.00
2018-09-06T11:13:01.694Z,19.00
2018-09-06T11:15:30.110Z,18.80
2018-09-06T11:17:58.943Z,18.80
2018-09-06T11:20:27.565Z,18.80
2018-09-06T11:22:56.031Z,18.60
2018-09-06T11:25:24.638Z,18.60
2018-09-06T11:27:53.101Z,18.50
2018-09-06T11:30:21.675Z,18.40
2018-09-06T11:32:50.137Z,18.30
2018-09-06T11:35:18.939Z,18.20
2018-09-06T11:37:47.354Z,18.20
2018-09-06T11:40:16.517Z,18.20
2018-09-06T11:42:45.120Z,18.20
2018-09-06T11:45:13.598Z,18.20
2018-09-06T11:47:42.441Z,18.10
2018-09-06T11:50:11.448Z,18.00
2018-09-06T11:52:40.231Z,17.90
2018-09-06T11:55:08.703Z,17.90
2018-09-06T11:57:37.177Z,17.80
2018-09-06T12:00:05.834Z,17.80
2018-09-06T12:02:34.946Z,17.80
2018-09-06T12:05:03.770Z,17.70
2018-09-06T12:07:32.183Z,17.80
2018-09-06T12:10:00.626Z,17.70
2018-09-06T12:12:29.038Z,17.70
2018-09-06T12:14:57.838Z,17.70
2018-09-06T12:17:26.609Z,17.70
2018-09-06T12:19:55.386Z,17.70
2018-09-06T12:22:23.863Z,17.60
2018-09-06T12:24:52.384Z,17.60
2018-09-06T12:27:21.245Z,17.60
2018-09-06T12:29:51.363Z,17.60
2018-09-06T12:32:21.063Z,17.70
2018-09-06T12:34:49.712Z,17.70
2018-09-06T12:37:18.130Z,17.80
2018-09-06T12:39:46.815Z,18.00
2018-09-06T12:42:15.234Z,18.10
2018-09-06T12:44:44.041Z,18.10
2018-09-06T12:47:12.463Z,18.10
2018-09-06T12:49:41.287Z,18.20
2018-09-06T12:52:09.829Z,18.20
2018-09-06T12:54:38.626Z,18.20
2018-09-06T12:57:07.086Z,18.30
2018-09-06T12:59:35.602Z,18.40
2018-09-06T13:02:04.391Z,18.50
2018-09-06T13:04:32.858Z,18.50
2018-09-06T13:07:01.637Z,18.50
2018-09-06T13:09:30.131Z,18.60
2018-09-06T13:11:58.564Z,18.60
2018-09-06T13:14:27.280Z,18.70
2018-09-06T13:16:55.718Z,18.80
2018-09-06T13:19:24.162Z,18.90
2018-09-06T13:21:52.594Z,18.90
2018-09-06T13:24:21.075Z,18.90
2018-09-06T13:26:49.499Z,18.90
2018-09-06T13:29:17.930Z,18.90
2018-09-06T13:31:46.425Z,18.90
2018-09-06T13:34:14.852Z,19.10
2018-09-06T13:36:43.291Z,19.10
2018-09-06T13:39:12.285Z,19.10
2018-09-06T13:41:40.760Z,19.20
2018-09-06T13:44:09.336Z,19.20
2018-09-06T13:46:38.113Z,19.20
2018-09-06T13:49:06.538Z,19.30
2018-09-06T13:51:34.974Z,19.30
2018-09-06T13:54:03.436Z,19.40
2018-09-06T13:56:31.908Z,19.40
2018-09-06T13:59:00.390Z,19.50
2018-09-06T14:01:28.871Z,19.50
2018-09-06T14:03:57.523Z,19.50
2018-09-06T14:06:26.026Z,19.50
2018-09-06T14:08:54.491Z,19.60
2018-09-06T14:11:22.918Z,19.70
2018-09-06T14:13:51.337Z,19.70
2018-09-06T14:16:19.819Z,19.80
2018-09-06T14:18:48.247Z,19.70
2018-09-06T14:21:16.831Z,19.70
2018-09-06T14:23:45.292Z,19.70
2018-09-06T14:26:13.727Z,19.60
2018-09-06T14:28:42.159Z,19.70
2018-09-06T14:31:10.643Z,19.80
2018-09-06T14:33:39.095Z,19.80
2018-09-06T14:36:07.571Z,19.90
2018-09-06T14:38:36.112Z,20.00
2018-09-06T14:41:04.701Z,19.90
2018-09-06T14:43:33.135Z,20.00
2018-09-06T14:46:01.561Z,19.90
2018-09-06T14:48:30.006Z,19.90
2018-09-06T14:50:58.443Z,20.00
2018-09-06T14:53:26.859Z,19.90
2018-09-06T14:55:55.342Z,19.80
2018-09-06T14:58:23.768Z,19.80
2018-09-06T15:00:52.214Z,19.70
2018-09-06T15:03:20.643Z,19.60
2018-09-06T15:05:49.377Z,19.50
2018-09-06T15:08:17.801Z,19.40
2018-09-06T15:10:46.283Z,19.50
2018-09-06T15:13:14.701Z,19.50
2018-09-06T15:15:43.170Z,19.60
2018-09-06T15:18:11.630Z,19.60
2018-09-06T15:20:40.058Z,19.80
2018-09-06T15:23:08.486Z,19.90
2018-09-06T15:25:36.938Z,20.00
2018-09-06T15:28:05.355Z,20.00
2018-09-06T15:30:33.794Z,20.10
2018-09-06T15:33:02.186Z,20.00
2018-09-06T15:35:30.618Z,20.00
2018-09-06T15:37:59.087Z,19.80
2018-09-06T15:40:27.540Z,19.80
2018-09-06T15:42:56.154Z,19.80
2018-09-06T15:45:24.574Z,19.90
2018-09-06T15:47:53.251Z,19.80
2018-09-06T15:50:21.667Z,19.70
2018-09-06T15:52:50.174Z,19.60
2018-09-06T15:55:18.931Z,19.40
2018-09-06T15:57:47.375Z,19.30
2018-09-06T16:00:15.811Z,19.20
2018-09-06T16:02:44.266Z,19.20
2018-09-06T16:05:12.686Z,19.20
2018-09-06T16:07:41.167Z,19.30
2018-09-06T16:10:10.223Z,19.30
2018-09-06T16:12:38.656Z,19.30
2018-09-06T16:15:07.759Z,19.30
2018-09-06T16:17:36.199Z,19.30
2018-09-06T16:20:04.650Z,19.30
2018-09-06T16:22:33.119Z,19.30
2018-09-06T16:25:01.524Z,19.20
2018-09-06T16:27:29.947Z,19.10
2018-09-06T16:29:58.410Z,19.10
2018-09-06T16:32:26.867Z,19.00
2018-09-06T16:34:55.273Z,19.00
2018-09-06T16:37:23.698Z,18.90
2018-09-06T16:39:52.126Z,18.80
2018-09-06T16:42:20.538Z,18.80
2018-09-06T16:44:48.963Z,18.80
2018-09-06T16:47:17.434Z,18.80
2018-09-06T16:49:45.878Z,18.70
2018-09-06T16:52:14.298Z,18.60
2018-09-06T16:54:42.686Z,18.60
2018-09-06T16:57:11.130Z,18.60
2018-09-06T16:59:39.555Z,18.60
2018-09-06T17:02:07.990Z,18.50
2018-09-06T17:04:36.457Z,18.50
2018-09-06T17:07:05.243Z,18.50
2018-09-06T17:09:33.679Z,18.50
2018-09-06T17:12:02.405Z,18.40
2018-09-06T17:14:30.941Z,18.40
2018-09-06T17:16:59.515Z,18.30
2018-09-06T17:19:27.941Z,18.30
2018-09-06T17:21:56.443Z,18.20
2018-09-06T17:24:24.862Z,18.20
2018-09-06T17:26:53.286Z,18.10
2018-09-06T17:29:21.739Z,18.10
2018-09-06T17:31:50.182Z,18.00
2018-09-06T17:34:18.602Z,18.00
2018-09-06T17:36:48.078Z,18.00
2018-09-06T17:39:16.851Z,18.00
2018-09-06T17:41:45.534Z,18.00
2018-09-06T17:44:13.970Z,17.90
2018-09-06T17:46:42.407Z,17.90
2018-09-06T17:49:10.849Z,17.90
2018-09-06T17:51:39.279Z,17.90
2018-09-06T17:54:07.726Z,17.90
2018-09-06T17:56:36.623Z,17.90
2018-09-06T17:59:05.533Z,17.90
2018-09-06T18:01:37.486Z,17.90
2018-09-06T18:04:06.453Z,17.90
2018-09-06T18:06:35.289Z,17.90
2018-09-06T18:09:06.198Z,17.90
2018-09-06T18:11:34.638Z,17.90
2018-09-06T18:14:03.486Z,17.90
2018-09-06T18:16:31.954Z,17.90
2018-09-06T18:19:00.734Z,17.90
2018-09-06T18:21:29.567Z,17.90
2018-09-06T18:23:58.123Z,17.90
2018-09-06T18:26:27.611Z,17.90
2018-09-06T18:28:56.508Z,17.90
2018-09-06T18:31:24.950Z,17.80
2018-09-06T18:33:53.431Z,17.80
2018-09-06T18:36:22.287Z,17.80
2018-09-06T18:38:51.198Z,17.80
2018-09-06T18:41:19.795Z,17.90
2018-09-06T18:43:48.293Z,17.90
2018-09-06T18:46:17.227Z,17.90
2018-09-06T18:48:45.651Z,17.90
2018-09-06T18:51:14.130Z,17.90
2018-09-06T18:53:43.093Z,17.90
2018-09-06T18:56:11.522Z,17.90
2018-09-06T18:58:40.295Z,17.90
2018-09-06T19:01:08.702Z,17.90
2018-09-06T19:03:37.183Z,18.00
2018-09-06T19:06:06.197Z,17.90
2018-09-06T19:08:34.689Z,18.00
2018-09-06T19:11:03.091Z,17.90
2018-09-06T19:13:31.575Z,17.90
2018-09-06T19:15:59.990Z,17.90
2018-09-06T19:18:28.514Z,18.00
2018-09-06T19:20:56.983Z,17.90
2018-09-06T19:23:25.407Z,17.90
2018-09-06T19:25:53.927Z,17.90
2018-09-06T19:28:22.376Z,17.90
2018-09-06T19:30:50.803Z,17.90
2018-09-06T19:33:19.218Z,17.90
2018-09-06T19:35:47.673Z,17.90
2018-09-06T19:38:16.079Z,17.80
2018-09-06T19:40:44.522Z,17.80
2018-09-06T19:43:12.970Z,17.80
2018-09-06T19:45:41.606Z,17.80
2018-09-06T19:48:10.032Z,17.80
2018-09-06T19:50:38.491Z,17.70
2018-09-06T19:56:05.919Z,17.70
2018-09-06T19:58:34.332Z,17.60
2018-09-06T20:01:03.243Z,17.60
2018-09-06T20:03:31.683Z,17.50
2018-09-06T20:06:00.526Z,17.50
2018-09-06T20:08:28.978Z,17.50
2018-09-06T20:10:58.061Z,17.40
2018-09-06T20:13:26.717Z,17.40
2018-09-06T20:15:55.179Z,17.40
2018-09-06T20:18:23.637Z,17.40
2018-09-06T20:20:52.118Z,17.40
2018-09-06T20:23:20.547Z,17.30
2018-09-06T20:25:49.007Z,17.30
2018-09-06T20:28:17.492Z,17.30
2018-09-06T20:30:46.080Z,17.20
2018-09-06T20:33:14.727Z,17.20
2018-09-06T20:35:43.195Z,17.20
2018-09-06T20:38:11.625Z,17.20
2018-09-06T20:40:40.111Z,17.10
2018-09-06T20:43:08.599Z,17.00
2018-09-06T20:45:37.395Z,17.00
2018-09-06T20:48:06.231Z,17.00
2018-09-06T20:50:34.666Z,17.00
2018-09-06T20:53:03.079Z,17.00
2018-09-06T20:55:31.502Z,17.00
2018-09-06T20:57:59.934Z,17.00
2018-09-06T21:00:28.381Z,17.00
2018-09-06T21:02:56.793Z,17.00
2018-09-06T21:05:25.223Z,17.00
2018-09-06T21:07:53.642Z,17.00
2018-09-06T21:10:22.078Z,17.00
2018-09-06T21:12:50.473Z,16.90
2018-09-06T21:15:18.903Z,17.00
2018-09-06T21:17:47.628Z,16.90
2018-09-06T21:20:16.048Z,16.90
2018-09-06T21:22:44.486Z,16.90
2018-09-06T21:25:12.928Z,16.90
2018-09-06T21:27:41.345Z,16.90
2018-09-06T21:30:09.867Z,16.90
2018-09-06T21:32:38.411Z,16.90
2018-09-06T21:35:07.250Z,16.90
2018-09-06T21:37:35.914Z,16.90
2018-09-06T21:40:04.523Z,16.90
2018-09-06T21:42:33.163Z,16.90
2018-09-06T21:45:01.613Z,16.90
2018-09-06T21:47:30.047Z,16.90
2018-09-06T21:49:58.484Z,16.90
2018-09-06T21:52:26.935Z,16.80
2018-09-06T21:54:55.339Z,16.90
2018-09-06T21:57:23.778Z,16.90
2018-09-06T21:59:52.180Z,16.80
2018-09-06T22:02:25.754Z,16.80
2018-09-06T22:04:54.206Z,16.80
2018-09-06T22:07:22.652Z,16.70
2018-09-06T22:09:51.076Z,16.70
2018-09-06T22:12:19.497Z,16.70
2018-09-06T22:14:49.852Z,16.80
2018-09-06T22:17:18.290Z,16.70
2018-09-06T22:19:47.510Z,16.70
2018-09-06T22:22:16.114Z,16.70
2018-09-06T22:24:44.693Z,16.70
2018-09-06T22:27:13.146Z,16.60
2018-09-06T22:29:41.539Z,16.60
2018-09-06T22:32:09.962Z,16.60
2018-09-06T22:34:38.379Z,16.50
2018-09-06T22:37:07.181Z,16.50
2018-09-06T22:39:35.589Z,16.50
2018-09-06T22:42:04.364Z,16.40
2018-09-06T22:44:32.964Z,16.40
2018-09-06T22:47:01.984Z,16.40
2018-09-06T22:49:30.731Z,16.40
2018-09-06T22:51:59.220Z,16.30
2018-09-06T22:54:27.635Z,16.30
2018-09-06T22:56:56.107Z,16.30
2018-09-06T22:59:24.510Z,16.30
2018-09-06T23:01:52.974Z,16.30
2018-09-06T23:04:21.409Z,16.30
2018-09-06T23:06:50.175Z,16.30
2018-09-06T23:09:18.591Z,16.30
2018-09-06T23:11:47.030Z,16.30
2018-09-06T23:14:15.430Z,16.30
2018-09-06T23:17:46.674Z,16.30
2018-09-06T23:20:15.930Z,16.30
2018-09-06T23:22:44.329Z,16.30
2018-09-06T23:25:12.887Z,16.30
2018-09-06T23:27:41.362Z,16.30
2018-09-06T23:30:09.930Z,16.30
2018-09-06T23:32:38.356Z,16.20
2018-09-06T23:35:06.808Z,16.10
2018-09-06T23:37:35.267Z,16.10
2018-09-06T23:40:04.132Z,16.00
2018-09-06T23:42:32.673Z,16.00
2018-09-06T23:45:01.072Z,15.90
2018-09-06T23:47:29.555Z,15.90
2018-09-06T23:49:58.001Z,15.90
2018-09-06T23:52:26.432Z,16.00
2018-09-06T23:54:54.963Z,15.90
2018-09-06T23:57:23.394Z,15.90
2018-09-06T23:59:51.854Z,15.90
